Time;durP1;ratioP1;P1;durP2;ratioP2;P2;SDS_P1;SDS_P2;PMS_P1;PMS_P2;Temp;Humidity;BMP_temperature;BMP_pressure;BME280_temperature;BME280_humidity;BME280_pressure;Samples;Min_cycle;Max_cycle;Signal;HPM_P1;HPM_P2
2022/09/16 00:00:50;;;;;;;;;0.00;0.00;;;;;14.02;70.67;101027.28;5003747;28;9145;-67
2022/09/16 00:03:17;;;;;;;;;0.67;0.00;;;;;14.02;70.55;101033.50;4998482;28;9231;-66
2022/09/16 00:05:48;;;;;;;;;0.00;0.00;;;;;14.02;70.83;101038.09;4999105;28;9074;-66
2022/09/16 00:08:16;;;;;;;;;0.00;0.00;;;;;13.99;70.74;101031.22;5005165;28;9200;-66
2022/09/16 00:10:42;;;;;;;;;0.00;0.00;;;;;13.97;70.79;101032.47;5002406;28;9259;-66
2022/09/16 00:13:10;;;;;;;;;0.00;0.00;;;;;13.94;70.58;101032.91;4997407;28;9199;-64
2022/09/16 00:15:44;;;;;;;;;0.00;0.00;;;;;13.93;70.76;101032.06;5006627;28;9084;-68
2022/09/16 00:18:11;;;;;;;;;0.00;0.00;;;;;13.92;70.66;101027.69;5005995;28;8950;-69
2022/09/16 00:20:48;;;;;;;;;0.00;0.00;;;;;13.94;70.93;101024.78;5002094;28;9140;-67
2022/09/16 00:23:15;;;;;;;;;1.00;0.00;;;;;13.93;71.15;101032.06;5006176;28;9178;-68
2022/09/16 00:25:41;;;;;;;;;0.00;0.00;;;;;13.95;71.35;101038.09;5004344;28;9322;-66
2022/09/16 00:28:08;;;;;;;;;0.00;0.00;;;;;13.91;71.24;101036.03;5010901;28;9230;-67
2022/09/16 00:30:35;;;;;;;;;0.33;0.00;;;;;13.90;71.59;101045.19;5010719;28;9269;-67
2022/09/16 00:33:02;;;;;;;;;0.00;0.00;;;;;13.92;71.85;101029.56;4998205;28;9305;-65
2022/09/16 00:35:28;;;;;;;;;0.67;0.00;;;;;13.95;72.08;101032.69;4991134;28;10053;-67
2022/09/16 00:37:54;;;;;;;;;0.00;0.00;;;;;14.00;72.21;101026.63;4996668;28;9390;-66
2022/09/16 00:40:21;;;;;;;;;1.00;0.00;;;;;14.01;72.04;101031.81;5006968;28;9209;-66
2022/09/16 00:42:48;;;;;;;;;0.00;0.00;;;;;13.99;72.09;101033.94;5008704;28;9379;-67
2022/09/16 00:45:21;;;;;;;;;1.00;0.00;;;;;13.98;72.33;101034.97;4991377;28;9419;-67
2022/09/16 00:47:51;;;;;;;;;0.00;0.00;;;;;13.96;72.40;101033.50;4990735;28;9334;-68
2022/09/16 00:50:39;;;;;;;;;0.00;0.00;;;;;13.94;72.26;101031.03;4990819;28;9324;-67
2022/09/16 00:53:21;;;;;;;;;0.00;0.00;;;;;13.92;72.34;101030.41;4999592;28;9148;-67
2022/09/16 00:55:50;;;;;;;;;0.00;0.00;;;;;13.90;72.52;101034.38;4996421;28;9195;-68
2022/09/16 00:58:35;;;;;;;;;3.33;1.00;;;;;13.87;72.57;101030.22;4990541;28;9379;-67
2022/09/16 01:01:03;;;;;;;;;0.67;0.00;;;;;13.85;72.63;101032.28;4990521;28;9186;-68
2022/09/16 01:03:34;;;;;;;;;0.00;0.00;;;;;13.85;72.73;101037.69;5004044;28;9317;-68
2022/09/16 01:06:01;;;;;;;;;0.00;0.00;;;;;13.81;72.53;101037.31;5006609;28;9319;-67
2022/09/16 01:08:28;;;;;;;;;0.00;0.00;;;;;13.78;72.87;101032.31;5011327;28;9427;-68
2022/09/16 01:10:54;;;;;;;;;0.67;0.67;;;;;13.76;72.47;101034.38;4998949;28;10285;-67
2022/09/16 01:13:21;;;;;;;;;0.00;0.00;;;;;13.75;72.94;101040.84;4994870;28;9536;-67
2022/09/16 01:16:09;;;;;;;;;0.00;0.00;;;;;13.76;72.96;101033.56;4994732;28;9442;-67
2022/09/16 01:18:53;;;;;;;;;0.50;0.00;;;;;13.74;73.14;101039.19;5000889;28;9309;-67
2022/09/16 01:21:47;;;;;;;;;0.00;0.00;;;;;13.74;73.01;101046.47;5005982;28;9448;-67
2022/09/16 01:24:47;;;;;;;;;0.33;0.00;;;;;13.73;73.51;101045.66;5012511;28;9394;-67
2022/09/16 01:27:43;;;;;;;;;1.00;1.00;;;;;13.72;73.56;101046.66;5008471;28;9239;-67
2022/09/16 01:30:37;;;;;;;;;0.00;0.00;;;;;13.70;73.64;101048.75;5001260;28;9387;-66
2022/09/16 01:33:12;;;;;;;;;0.00;0.00;;;;;13.69;73.70;101044.38;4981837;28;9215;-67
2022/09/16 01:35:54;;;;;;;;;0.00;0.00;;;;;13.70;73.48;101046.06;5005917;28;9166;-67
2022/09/16 01:38:26;;;;;;;;;0.00;0.00;;;;;13.67;73.16;101049.19;4995412;28;9186;-67
2022/09/16 01:41:14;;;;;;;;;0.00;0.00;;;;;13.66;73.16;101047.53;4994073;28;9258;-67
2022/09/16 01:44:11;;;;;;;;;0.00;0.00;;;;;13.63;72.81;101039.81;5009352;28;9794;-66
2022/09/16 01:46:50;;;;;;;;;0.00;0.00;;;;;13.62;72.63;101038.16;4992640;28;9165;-64
2022/09/16 01:49:27;;;;;;;;;0.00;0.00;;;;;13.62;72.81;101038.16;5001618;28;9841;-66
2022/09/16 01:52:13;;;;;;;;;0.00;0.00;;;;;13.61;72.70;101036.47;5013085;28;9297;-65
2022/09/16 01:55:20;;;;;;;;;0.00;0.00;;;;;13.63;73.10;101033.56;5013595;28;9374;-66
2022/09/16 01:58:14;;;;;;;;;0.00;0.00;;;;;13.64;73.02;101035.22;5006761;28;9184;-66
2022/09/16 02:00:44;;;;;;;;;0.00;0.00;;;;;13.64;73.18;101036.06;5008905;28;9421;-66
2022/09/16 02:03:17;;;;;;;;;0.00;0.00;;;;;13.63;73.10;101034.41;4999432;28;9180;-67
2022/09/16 02:05:57;;;;;;;;;0.00;0.00;;;;;13.64;73.26;101046.88;5001487;28;9323;-67
2022/09/16 02:08:33;;;;;;;;;0.00;0.00;;;;;13.67;73.22;101062.69;4993396;28;9371;-66
2022/09/16 02:11:05;;;;;;;;;1.00;1.00;;;;;13.51;72.46;101082.06;4993482;28;9350;-67
2022/09/16 02:13:36;;;;;;;;;0.00;0.00;;;;;13.32;72.71;101081.81;4994601;28;10054;-66
2022/09/16 02:16:07;;;;;;;;;0.00;0.00;;;;;13.14;72.71;101076.16;5009687;28;9239;-64
2022/09/16 02:18:39;;;;;;;;;0.00;0.00;;;;;13.17;73.32;101073.06;4999200;28;9382;-68
2022/09/16 02:21:10;;;;;;;;;0.67;0.00;;;;;13.23;73.17;101066.84;5005062;28;9302;-66
2022/09/16 02:23:41;;;;;;;;;0.00;0.00;;;;;13.29;72.93;101057.09;4998846;28;9377;-66
2022/09/16 02:26:13;;;;;;;;;0.00;0.00;;;;;13.33;73.26;101052.94;4992464;28;9326;-68
2022/09/16 02:28:42;;;;;;;;;0.50;0.00;;;;;13.36;72.89;101047.91;5002671;28;9472;-66
2022/09/16 02:31:12;;;;;;;;;0.67;0.00;;;;;13.36;72.99;101049.81;5013322;28;9459;-65
2022/09/16 02:33:49;;;;;;;;;0.00;0.00;;;;;13.39;72.90;101048.56;5011345;28;9231;-66
2022/09/16 02:36:20;;;;;;;;;0.00;0.00;;;;;13.42;72.58;101048.16;4973763;28;9393;-66
2022/09/16 02:38:52;;;;;;;;;0.00;0.00;;;;;13.43;72.60;101039.81;4975611;28;9338;-67
2022/09/16 02:41:19;;;;;;;;;0.00;0.00;;;;;13.44;72.48;101040.66;4992507;28;9402;-66
2022/09/16 02:43:45;;;;;;;;;0.00;0.00;;;;;13.42;72.35;101021.94;5004223;28;9365;-66
2022/09/16 02:46:48;;;;;;;;;0.00;0.00;;;;;13.40;72.20;101031.28;5007378;28;9398;-66
2022/09/16 02:49:39;;;;;;;;;0.00;0.00;;;;;13.40;72.74;101053.75;4993474;28;9463;-66
2022/09/16 02:52:22;;;;;;;;;1.00;0.00;;;;;13.36;72.53;101060.63;4972544;28;9300;-65
2022/09/16 02:55:02;;;;;;;;;0.00;0.00;;;;;13.34;72.53;101060.00;4987748;28;9300;-66
2022/09/16 02:57:29;;;;;;;;;0.00;0.00;;;;;13.31;72.34;101055.84;5003514;28;9462;-66
2022/09/16 02:59:55;;;;;;;;;0.00;0.00;;;;;13.28;72.57;101063.53;5007841;28;9398;-67
2022/09/16 03:02:22;;;;;;;;;0.00;0.00;;;;;13.21;72.68;101068.91;5006921;28;9306;-66
2022/09/16 03:04:49;;;;;;;;;0.00;0.00;;;;;13.17;72.33;101062.25;4974062;28;9242;-67
2022/09/16 03:07:16;;;;;;;;;0.00;0.00;;;;;13.16;72.46;101055.16;5007464;28;9242;-66
2022/09/16 03:09:46;;;;;;;;;0.00;0.00;;;;;13.19;72.39;101038.53;4993569;28;9416;-68
2022/09/16 03:12:48;;;;;;;;;0.00;0.00;;;;;13.20;72.39;101031.25;5005516;28;9317;-67
2022/09/16 03:15:32;;;;;;;;;0.00;0.00;;;;;13.20;72.39;101029.38;4972151;28;9461;-66
2022/09/16 03:18:42;;;;;;;;;0.00;0.00;;;;;13.21;72.40;101020.25;4987447;28;9567;-66
2022/09/16 03:21:44;;;;;;;;;0.00;0.00;;;;;13.22;72.51;101024.59;4992651;28;9422;-67
2022/09/16 03:24:42;;;;;;;;;0.00;0.00;;;;;13.21;72.46;101020.25;4975064;28;9500;-66
2022/09/16 03:27:22;;;;;;;;;0.00;0.00;;;;;13.20;72.55;101023.97;4996752;28;9373;-66
2022/09/16 03:30:01;;;;;;;;;0.00;0.00;;;;;13.19;72.61;101022.31;4997685;28;9437;-63
2022/09/16 03:32:47;;;;;;;;;1.00;0.00;;;;;13.16;72.60;101019.19;4999646;28;9313;-64
2022/09/16 03:35:22;;;;;;;;;0.00;0.00;;;;;13.15;73.02;101029.16;4993843;28;9379;-66
2022/09/16 03:37:52;;;;;;;;;0.00;0.00;;;;;13.11;73.10;101025.22;4994822;28;9403;-65
2022/09/16 03:40:19;;;;;;;;;0.00;0.00;;;;;13.09;73.16;101027.31;5004089;28;9344;-66
2022/09/16 03:42:46;;;;;;;;;0.00;0.00;;;;;13.08;73.30;101018.38;5012109;28;9331;-66
2022/09/16 03:45:18;;;;;;;;;0.00;0.00;;;;;13.10;73.74;101027.09;4995683;28;9386;-66
2022/09/16 03:47:47;;;;;;;;;0.00;0.00;;;;;13.10;73.50;101023.56;4992070;28;9385;-65
2022/09/16 03:50:14;;;;;;;;;0.00;0.00;;;;;13.09;73.39;101025.44;4998741;28;9398;-65
2022/09/16 03:52:40;;;;;;;;;0.00;0.00;;;;;13.10;73.30;101020.84;4993533;28;10090;-66
2022/09/16 03:55:08;;;;;;;;;0.00;0.00;;;;;13.08;73.53;101018.38;4998279;28;9546;-66
2022/09/16 03:57:35;;;;;;;;;0.00;0.00;;;;;13.06;73.43;101022.31;5006847;28;9460;-68
2022/09/16 04:00:04;;;;;;;;;0.00;0.00;;;;;13.05;73.81;101031.47;5003205;28;9598;-68
2022/09/16 04:02:37;;;;;;;;;0.00;0.00;;;;;13.06;73.63;101025.00;5007720;28;10178;-65
2022/09/16 04:05:03;;;;;;;;;0.00;0.00;;;;;13.03;73.75;101026.25;5010633;28;9551;-63
2022/09/16 04:07:32;;;;;;;;;0.00;0.00;;;;;13.02;73.95;101024.59;5002788;28;9335;-66
2022/09/16 04:09:59;;;;;;;;;0.00;0.00;;;;;13.00;73.85;101025.81;4991132;28;9398;-68
2022/09/16 04:12:25;;;;;;;;;1.50;0.00;;;;;13.00;73.94;101031.22;4991081;28;9482;-68
2022/09/16 04:14:51;;;;;;;;;0.00;0.00;;;;;12.98;73.90;101020.63;4991415;28;9442;-65
2022/09/16 04:17:18;;;;;;;;;0.00;0.00;;;;;13.01;74.18;101030.22;5007675;28;10081;-67
2022/09/16 04:19:44;;;;;;;;;0.00;0.00;;;;;13.05;74.49;101031.47;5001848;28;9397;-67
2022/09/16 04:22:11;;;;;;;;;4.33;0.33;;;;;13.10;74.36;101039.78;5005814;28;9501;-67
2022/09/16 04:24:37;;;;;;;;;0.00;0.00;;;;;13.11;74.17;101036.03;4990762;28;9360;-67
2022/09/16 04:27:04;;;;;;;;;0.00;0.00;;;;;13.11;74.13;101031.44;4992423;28;9487;-66
2022/09/16 04:29:31;;;;;;;;;0.00;0.00;;;;;13.10;74.60;101035.19;4991030;28;9432;-68
2022/09/16 04:31:57;;;;;;;;;0.00;0.00;;;;;13.09;74.49;101038.94;4990980;28;9524;-67
2022/09/16 04:34:24;;;;;;;;;0.50;0.00;;;;;13.05;74.66;101026.88;4991759;28;9393;-68
2022/09/16 04:36:50;;;;;;;;;0.00;0.00;;;;;13.05;74.50;101015.25;5001748;28;9382;-65
2022/09/16 04:39:17;;;;;;;;;0.00;0.00;;;;;13.07;74.58;101011.28;5008907;28;9441;-66
2022/09/16 04:41:43;;;;;;;;;1.00;0.25;;;;;13.11;74.52;101017.09;4991244;28;9394;-65
2022/09/16 04:44:10;;;;;;;;;0.00;0.00;;;;;13.16;74.65;101021.88;5006402;28;9545;-69
2022/09/16 04:46:36;;;;;;;;;0.00;0.00;;;;;13.18;74.28;101014.41;4989857;28;10040;-66
2022/09/16 04:49:03;;;;;;;;;0.25;0.25;;;;;13.19;74.57;100999.84;5007546;28;9324;-66
2022/09/16 04:51:31;;;;;;;;;0.00;0.00;;;;;13.21;74.56;101011.31;4997577;28;10154;-66
2022/09/16 04:53:58;;;;;;;;;0.00;0.00;;;;;13.18;74.20;101012.53;4993455;28;10175;-66
2022/09/16 04:56:27;;;;;;;;;0.00;0.00;;;;;13.19;74.44;101021.47;4995543;28;9460;-65
2022/09/16 04:58:58;;;;;;;;;1.00;1.00;;;;;13.17;74.35;101032.50;4990641;28;9535;-66
2022/09/16 05:01:27;;;;;;;;;0.25;0.25;;;;;13.14;74.56;101029.38;4990373;28;9393;-66
2022/09/16 05:03:56;;;;;;;;;1.33;0.00;;;;;13.13;74.89;101022.31;5001592;28;9539;-66
2022/09/16 05:06:28;;;;;;;;;0.00;0.00;;;;;13.11;74.66;101025.22;5003327;28;9697;-65
2022/09/16 05:08:55;;;;;;;;;0.00;0.00;;;;;13.08;74.86;101023.78;4991023;28;9458;-66
2022/09/16 05:11:25;;;;;;;;;0.00;0.00;;;;;13.09;74.73;101024.59;5000081;28;9465;-66
2022/09/16 05:13:52;;;;;;;;;0.00;0.00;;;;;13.08;74.53;101025.63;4990301;28;9469;-66
2022/09/16 05:16:20;;;;;;;;;0.00;0.00;;;;;13.07;74.39;101019.38;5008896;28;9406;-64
2022/09/16 05:18:49;;;;;;;;;1.00;1.00;;;;;13.06;74.53;101033.94;4999944;28;9387;-64
2022/09/16 05:21:20;;;;;;;;;0.00;0.00;;;;;13.05;74.53;101035.00;4990182;28;10107;-67
2022/09/16 05:23:47;;;;;;;;;0.00;0.00;;;;;13.02;74.33;101026.47;4992756;28;10095;-67
2022/09/16 05:26:20;;;;;;;;;0.00;0.00;;;;;13.00;74.24;101029.34;5006118;28;9564;-67
2022/09/16 05:28:47;;;;;;;;;1.33;0.00;;;;;12.99;74.54;101035.78;5006197;28;9574;-67
2022/09/16 05:31:19;;;;;;;;;0.00;0.00;;;;;12.98;74.39;101036.00;4989238;28;9391;-66
2022/09/16 05:33:54;;;;;;;;;1.00;0.67;;;;;12.96;74.55;101038.06;4990427;28;9590;-66
2022/09/16 05:36:20;;;;;;;;;2.00;0.25;;;;;12.96;74.33;101038.06;4989502;28;9470;-63
2022/09/16 05:38:47;;;;;;;;;0.00;0.00;;;;;12.96;74.70;101038.06;4995170;28;9553;-67
2022/09/16 05:41:33;;;;;;;;;0.00;0.00;;;;;12.97;74.86;101042.47;5004058;28;9464;-67
2022/09/16 05:44:00;;;;;;;;;0.00;0.00;;;;;12.98;74.90;101046.81;4990538;28;9561;-67
2022/09/16 05:46:27;;;;;;;;;2.00;1.00;;;;;12.97;74.98;101055.97;4989634;28;9376;-66
2022/09/16 05:48:55;;;;;;;;;0.00;0.00;;;;;12.99;75.19;101065.53;5000304;28;9505;-66
2022/09/16 05:51:22;;;;;;;;;0.00;0.00;;;;;13.00;75.14;101078.00;4993379;28;9397;-65
2022/09/16 05:53:50;;;;;;;;;2.00;1.00;;;;;12.98;74.95;101077.38;5006761;28;9325;-66
2022/09/16 05:56:18;;;;;;;;;1.33;0.00;;;;;12.93;75.00;101076.34;5003319;28;9406;-66
2022/09/16 05:58:45;;;;;;;;;0.33;0.33;;;;;12.82;74.61;101073.19;4993975;28;9464;-67
2022/09/16 06:01:16;;;;;;;;;0.00;0.00;;;;;12.73;74.19;101079.81;4993184;28;9335;-66
2022/09/16 06:03:45;;;;;;;;;0.00;0.00;;;;;12.65;73.73;101096.19;5004467;28;9467;-66
2022/09/16 06:06:11;;;;;;;;;0.00;0.00;;;;;12.48;72.58;101076.81;5007835;28;9593;-66
2022/09/16 06:08:39;;;;;;;;;0.00;0.00;;;;;12.46;72.89;101075.31;5006818;28;10112;-66
2022/09/16 06:11:09;;;;;;;;;0.00;0.00;;;;;12.52;72.92;101066.44;4994143;28;9491;-66
2022/09/16 06:13:38;;;;;;;;;0.00;0.00;;;;;12.53;72.41;101062.69;5000786;28;10378;-66
2022/09/16 06:16:07;;;;;;;;;0.00;0.00;;;;;12.52;72.46;101056.47;4993205;28;9467;-64
2022/09/16 06:18:35;;;;;;;;;0.00;0.00;;;;;12.56;72.26;101056.91;5001211;28;10120;-67
2022/09/16 06:21:05;;;;;;;;;0.25;0.00;;;;;12.56;72.15;101057.72;4993700;28;10390;-68
2022/09/16 06:23:32;;;;;;;;;0.00;0.00;;;;;12.58;72.39;101052.94;4993675;28;9390;-68
2022/09/16 06:26:07;;;;;;;;;0.00;0.00;;;;;12.60;72.57;101055.47;4993762;28;9568;-68
2022/09/16 06:28:34;;;;;;;;;0.00;0.00;;;;;12.61;72.65;101051.72;5002719;28;9513;-68
2022/09/16 06:31:07;;;;;;;;;0.00;0.00;;;;;12.60;72.52;101044.66;4998168;28;9414;-66
2022/09/16 06:33:34;;;;;;;;;1.00;0.00;;;;;12.57;72.74;101050.44;5010036;28;9499;-67
2022/09/16 06:36:06;;;;;;;;;0.00;0.00;;;;;12.60;73.12;101050.06;4991900;28;9628;-65
2022/09/16 06:38:33;;;;;;;;;0.00;0.00;;;;;12.65;73.25;101058.38;4998755;28;9529;-67
2022/09/16 06:41:01;;;;;;;;;0.00;0.00;;;;;12.67;73.24;101050.88;4999354;28;9615;-67
2022/09/16 06:43:28;;;;;;;;;0.75;0.00;;;;;12.69;73.00;101059.63;4999504;28;9397;-67
2022/09/16 06:45:58;;;;;;;;;0.50;0.00;;;;;12.72;73.15;101058.38;5054369;22;9471;-67
2022/09/16 06:48:26;;;;;;;;;1.50;1.00;;;;;12.72;73.13;101053.84;5048718;28;9548;-67
2022/09/16 06:51:25;;;;;;;;;0.00;0.00;;;;;12.78;73.17;101052.19;5041901;28;9511;-65
2022/09/16 06:53:55;;;;;;;;;0.00;0.00;;;;;12.83;73.24;101050.53;5035210;28;9492;-65
2022/09/16 06:56:21;;;;;;;;;0.00;0.00;;;;;12.89;73.07;101051.59;5033968;28;9533;-64
2022/09/16 06:58:51;;;;;;;;;0.50;0.50;;;;;12.91;72.93;101048.69;5042633;28;9602;-65
2022/09/16 07:01:21;;;;;;;;;1.00;0.25;;;;;12.98;73.13;101061.16;5042035;28;9497;-65
2022/09/16 07:03:50;;;;;;;;;0.75;0.75;;;;;13.02;72.88;101050.78;5043499;28;9511;-65
2022/09/16 07:06:18;;;;;;;;;1.00;0.00;;;;;13.07;72.88;101046.41;5051727;28;9581;-65
2022/09/16 07:08:45;;;;;;;;;0.00;0.00;;;;;13.17;73.16;101056.00;5031803;28;10434;-66
2022/09/16 07:11:20;;;;;;;;;0.00;0.00;;;;;13.29;72.92;101071.44;5045233;28;9427;-66
2022/09/16 07:13:47;;;;;;;;;0.00;0.00;;;;;13.36;72.87;101071.44;5040410;28;9394;-66
2022/09/16 07:16:16;;;;;;;;;1.00;0.67;;;;;13.31;72.35;101082.03;5043166;28;9370;-65
2022/09/16 07:18:43;;;;;;;;;0.25;0.25;;;;;13.16;71.97;101084.88;5038114;28;9231;-65
2022/09/16 07:21:17;;;;;;;;;0.00;0.00;;;;;13.07;71.39;101086.13;5036868;28;9469;-65
2022/09/16 07:23:45;;;;;;;;;0.00;0.00;;;;;12.96;71.75;101089.41;5037469;28;9276;-65
2022/09/16 07:26:15;;;;;;;;;0.00;0.00;;;;;12.94;72.30;101086.09;5049151;28;9319;-64
2022/09/16 07:28:45;;;;;;;;;0.00;0.00;;;;;12.92;72.33;101082.75;5050551;28;9241;-65
2022/09/16 07:31:14;;;;;;;;;1.33;1.00;;;;;12.93;72.60;101087.16;5050598;28;9308;-64
2022/09/16 07:33:44;;;;;;;;;0.00;0.00;;;;;12.95;72.80;101090.47;5050638;28;9478;-65
2022/09/16 07:36:13;;;;;;;;;0.00;0.00;;;;;12.92;72.76;101088.16;5048520;28;9503;-66
2022/09/16 07:38:40;;;;;;;;;1.75;1.00;;;;;12.91;72.61;101083.78;5040988;28;9470;-65
2022/09/16 07:41:23;;;;;;;;;0.00;0.00;;;;;12.91;72.99;101092.72;5049927;28;9534;-65
2022/09/16 07:43:49;;;;;;;;;0.25;0.25;;;;;12.90;73.21;101087.53;5047343;28;9511;-65
2022/09/16 07:46:18;;;;;;;;;0.00;0.00;;;;;12.92;73.34;101080.06;5042010;28;9469;-65
2022/09/16 07:48:47;;;;;;;;;0.50;0.00;;;;;12.96;73.56;101087.53;5044482;28;9521;-65
2022/09/16 07:51:19;;;;;;;;;1.00;1.00;;;;;13.04;73.64;101091.94;5050127;28;9494;-65
2022/09/16 07:53:46;;;;;;;;;0.00;0.00;;;;;13.08;73.78;101090.47;5041781;28;9715;-65
2022/09/16 07:56:18;;;;;;;;;0.00;0.00;;;;;13.10;73.74;101094.66;5037924;28;9447;-65
2022/09/16 07:58:46;;;;;;;;;0.00;0.00;;;;;13.11;73.79;101093.63;5038728;28;9536;-65
2022/09/16 08:01:14;;;;;;;;;0.00;0.00;;;;;13.14;73.82;101105.06;5037371;28;9376;-65
2022/09/16 08:03:42;;;;;;;;;0.00;0.00;;;;;13.13;73.86;101098.84;5043731;28;9540;-65
2022/09/16 08:06:14;;;;;;;;;0.00;0.00;;;;;13.16;73.61;101098.41;5050492;28;9462;-66
2022/09/16 08:08:41;;;;;;;;;0.75;0.75;;;;;13.20;73.55;101102.34;5033367;28;9477;-65
2022/09/16 08:11:08;;;;;;;;;0.00;0.00;;;;;13.24;73.24;101105.53;5044190;28;9351;-65
2022/09/16 08:13:36;;;;;;;;;0.00;0.00;;;;;13.32;73.47;101116.13;5047027;28;10122;-65
2022/09/16 08:16:11;;;;;;;;;0.00;0.00;;;;;13.46;73.52;101125.94;5050204;28;9375;-65
2022/09/16 08:18:38;;;;;;;;;0.00;0.00;;;;;13.53;73.09;101115.13;5045199;28;9357;-65
2022/09/16 08:21:06;;;;;;;;;0.00;0.00;;;;;13.59;73.15;101115.13;5044027;28;9308;-65
2022/09/16 08:23:37;;;;;;;;;0.00;0.00;;;;;13.52;72.49;101119.69;5045417;28;9217;-66
2022/09/16 08:26:04;;;;;;;;;0.00;0.00;;;;;13.49;72.37;101119.28;5050407;28;10092;-65
2022/09/16 08:28:31;;;;;;;;;0.00;0.00;;;;;13.47;72.63;101141.13;5048136;28;9289;-65
2022/09/16 08:31:18;;;;;;;;;1.00;0.00;;;;;13.41;72.67;101138.41;5030704;28;9382;-65
2022/09/16 08:33:46;;;;;;;;;0.00;0.00;;;;;13.27;72.25;101142.97;5032394;28;9372;-66
2022/09/16 08:36:18;;;;;;;;;0.00;0.00;;;;;13.19;72.70;101146.66;5045856;28;9296;-65
2022/09/16 08:38:46;;;;;;;;;0.00;0.00;;;;;13.15;72.43;101149.97;5040262;28;9227;-65
2022/09/16 08:41:22;;;;;;;;;1.00;0.00;;;;;12.97;71.70;101151.38;5030774;28;9409;-65
2022/09/16 08:44:01;;;;;;;;;0.00;0.00;;;;;12.94;72.09;101156.34;5036890;28;9353;-66
2022/09/16 08:46:51;;;;;;;;;0.00;0.00;;;;;12.92;71.55;101156.53;5040903;28;9383;-65
2022/09/16 08:49:27;;;;;;;;;0.75;0.00;;;;;12.91;71.28;101159.44;5030678;28;9439;-65
2022/09/16 08:51:55;;;;;;;;;0.00;0.00;;;;;12.92;71.40;101161.94;5043798;28;9503;-66
2022/09/16 08:54:30;;;;;;;;;0.00;0.00;;;;;12.87;71.50;101169.81;5049671;28;9470;-65
2022/09/16 08:57:00;;;;;;;;;0.00;0.00;;;;;12.88;72.06;101171.47;5044824;28;9448;-65
2022/09/16 08:59:34;;;;;;;;;0.25;0.00;;;;;12.78;71.93;101152.13;5044210;28;9534;-65
2022/09/16 09:02:19;;;;;;;;;0.00;0.00;;;;;12.75;71.99;101155.22;5049434;28;9523;-65
2022/09/16 09:04:47;;;;;;;;;0.00;0.00;;;;;12.73;72.22;101138.41;5056366;28;9373;-65
2022/09/16 09:07:31;;;;;;;;;0.00;0.00;;;;;12.73;72.22;101141.94;5044418;28;9550;-65
2022/09/16 09:10:24;;;;;;;;;0.00;0.00;;;;;12.77;72.53;101135.09;5046391;28;9396;-65
2022/09/16 09:13:04;;;;;;;;;0.00;0.00;;;;;12.79;72.69;101135.72;5037437;28;9331;-65
2022/09/16 09:15:57;;;;;;;;;0.00;0.00;;;;;12.82;72.71;101131.78;5048195;28;9599;-66
2022/09/16 09:18:35;;;;;;;;;0.50;0.00;;;;;12.89;72.92;101129.94;5040504;28;9547;-66
2022/09/16 09:21:25;;;;;;;;;0.00;0.00;;;;;13.00;73.26;101131.22;5037107;28;9522;-66
2022/09/16 09:24:05;;;;;;;;;0.00;0.00;;;;;13.13;73.50;101139.38;5037429;28;9376;-66
2022/09/16 09:26:42;;;;;;;;;0.00;0.00;;;;;13.27;73.29;101151.91;5035437;28;9393;-65
2022/09/16 09:29:43;;;;;;;;;0.75;0.75;;;;;13.31;72.76;101169.38;5041883;28;9373;-65
2022/09/16 09:32:23;;;;;;;;;0.00;0.00;;;;;13.27;72.85;101180.81;5038642;28;10081;-65
2022/09/16 09:35:20;;;;;;;;;0.00;0.00;;;;;13.16;72.74;101182.19;5053891;28;9368;-65
2022/09/16 09:38:15;;;;;;;;;0.50;0.00;;;;;13.04;72.95;101173.00;5040441;28;9451;-65
2022/09/16 09:40:51;;;;;;;;;0.00;0.00;;;;;12.95;73.42;101161.53;5033682;28;9518;-65
2022/09/16 09:43:24;;;;;;;;;1.00;0.00;;;;;12.95;73.57;101166.13;5046275;28;9416;-65
2022/09/16 09:46:03;;;;;;;;;0.00;0.00;;;;;12.92;73.45;101159.25;5045427;28;9451;-65
2022/09/16 09:48:37;;;;;;;;;1.00;0.00;;;;;12.97;73.75;101156.78;5050331;28;10167;-65
2022/09/16 09:51:14;;;;;;;;;0.00;0.00;;;;;13.08;73.58;101163.47;5047346;28;9386;-65
2022/09/16 09:53:49;;;;;;;;;0.00;0.00;;;;;13.13;73.23;101160.16;5048660;28;9405;-66
2022/09/16 09:56:29;;;;;;;;;0.00;0.00;;;;;13.19;73.07;101159.34;5052888;28;9485;-65
2022/09/16 09:59:19;;;;;;;;;0.00;0.00;;;;;13.29;72.60;101160.66;5052496;28;9450;-65
2022/09/16 10:01:46;;;;;;;;;0.00;0.00;;;;;13.40;72.60;101163.78;5051225;28;10249;-66
2022/09/16 10:04:14;;;;;;;;;0.00;0.00;;;;;13.51;72.35;101171.31;5045879;28;9551;-65
2022/09/16 10:06:42;;;;;;;;;0.00;0.00;;;;;13.56;72.27;101163.41;5047833;28;9420;-65
2022/09/16 10:09:13;;;;;;;;;0.00;0.00;;;;;13.56;71.99;101160.69;5034361;28;9401;-65
2022/09/16 10:11:54;;;;;;;;;1.00;1.00;;;;;13.55;72.18;101157.16;5047784;28;9335;-65
2022/09/16 10:14:24;;;;;;;;;0.67;0.67;;;;;13.59;72.56;101155.72;5045690;28;9369;-66
2022/09/16 10:16:52;;;;;;;;;0.00;0.00;;;;;13.69;72.69;101149.88;5040364;28;9332;-65
2022/09/16 10:19:24;;;;;;;;;0.00;0.00;;;;;13.73;72.39;101144.88;5042113;28;9347;-65
2022/09/16 10:22:06;;;;;;;;;0.00;0.00;;;;;13.70;72.17;101143.44;5041052;28;9330;-65
2022/09/16 10:24:41;;;;;;;;;0.00;0.00;;;;;13.69;72.45;101138.22;5045758;28;10075;-65
2022/09/16 10:27:28;;;;;;;;;1.00;0.00;;;;;13.69;72.93;101144.47;5044855;28;9397;-65
2022/09/16 10:30:32;;;;;;;;;0.00;0.00;;;;;13.73;73.07;101145.75;5052264;28;9977;-65
2022/09/16 10:33:13;;;;;;;;;1.00;0.00;;;;;13.70;73.16;101140.75;5045591;28;10027;-66
2022/09/16 10:35:49;;;;;;;;;0.00;0.00;;;;;13.75;73.45;101134.72;5032231;28;9268;-65
2022/09/16 10:38:21;;;;;;;;;0.00;0.00;;;;;13.78;73.53;101132.41;5042362;28;9991;-65
2022/09/16 10:40:56;;;;;;;;;0.00;0.00;;;;;13.80;73.77;101126.78;5051338;28;9162;-65
2022/09/16 10:43:26;;;;;;;;;0.00;0.00;;;;;13.80;73.85;101134.91;5046940;28;9512;-65
2022/09/16 10:45:53;;;;;;;;;0.00;0.00;;;;;13.77;73.79;101146.13;5050250;28;9470;-65
2022/09/16 10:48:29;;;;;;;;;0.00;0.00;;;;;13.65;73.40;101161.31;5048333;28;9154;-65
2022/09/16 10:51:01;;;;;;;;;1.00;0.00;;;;;13.45;73.06;101172.13;5051933;28;9225;-66
2022/09/16 10:53:32;;;;;;;;;1.00;0.33;;;;;13.34;73.60;101170.84;5037431;28;9103;-65
2022/09/16 10:56:06;;;;;;;;;2.00;0.00;;;;;13.28;73.58;101164.38;5038583;28;9186;-65
2022/09/16 10:58:32;;;;;;;;;0.67;0.67;;;;;13.19;73.64;101162.88;5051156;28;9154;-64
2022/09/16 11:01:12;;;;;;;;;2.33;0.67;;;;;13.06;73.56;101147.44;5050758;28;9262;-64
2022/09/16 11:04:09;;;;;;;;;1.00;0.00;;;;;12.99;74.05;101146.59;5045335;28;9434;-64
2022/09/16 11:06:52;;;;;;;;;0.00;0.00;;;;;12.95;74.10;101150.75;5048945;28;9382;-65
2022/09/16 11:09:40;;;;;;;;;1.00;1.00;;;;;12.94;74.52;101143.66;5047192;28;9371;-67
2022/09/16 11:12:40;;;;;;;;;0.33;0.33;;;;;13.00;76.98;101145.53;5051638;28;9390;-60
2022/09/16 11:15:23;;;;;;;;;1.00;1.00;;;;;13.23;75.08;101136.31;5043497;28;9383;-65
2022/09/16 11:18:02;;;;;;;;;0.67;0.67;;;;;13.34;74.38;101139.25;5050674;28;9419;-64
2022/09/16 11:21:06;;;;;;;;;0.00;0.00;;;;;13.40;74.32;101142.16;5051891;28;9237;-64
2022/09/16 11:23:50;;;;;;;;;0.00;0.00;;;;;13.46;74.15;101135.94;5047424;28;9389;-64
2022/09/16 11:26:35;;;;;;;;;1.00;0.00;;;;;13.46;74.19;101133.22;5035477;28;10008;-65
2022/09/16 11:29:16;;;;;;;;;0.00;0.00;;;;;13.57;74.29;101132.59;5049119;28;9234;-65
2022/09/16 11:32:01;;;;;;;;;0.00;0.00;;;;;13.68;74.46;101134.69;5045379;28;9373;-64
2022/09/16 11:34:58;;;;;;;;;0.33;0.33;;;;;13.71;74.31;101122.63;5040357;28;9327;-64
2022/09/16 11:37:53;;;;;;;;;1.33;0.00;;;;;13.77;74.05;101129.91;5046617;28;9302;-65
2022/09/16 11:40:46;;;;;;;;;0.00;0.00;;;;;13.88;74.04;101125.75;5051935;28;9317;-65
2022/09/16 11:43:44;;;;;;;;;0.33;0.00;;;;;14.03;73.96;101118.25;5051011;28;9231;-65
2022/09/16 11:46:26;;;;;;;;;1.00;1.00;;;;;14.03;73.52;101115.53;5048118;28;9223;-65
2022/09/16 11:49:22;;;;;;;;;2.00;1.00;;;;;14.07;73.11;101122.19;5045441;28;9323;-64
2022/09/16 11:52:19;;;;;;;;;1.00;1.00;;;;;14.19;73.27;101119.69;5051065;28;9002;-65
2022/09/16 11:55:19;;;;;;;;;0.00;0.00;;;;;14.16;72.65;101111.97;5036394;28;9128;-65
2022/09/16 11:57:58;;;;;;;;;0.00;0.00;;;;;14.26;72.79;101115.94;5046571;28;9085;-67
2022/09/16 12:00:25;;;;;;;;;0.00;0.00;;;;;14.37;72.32;101121.72;5043599;28;8994;-65
2022/09/16 12:03:14;;;;;;;;;1.00;0.33;;;;;14.35;72.09;101122.75;5040048;28;9015;-65
2022/09/16 12:05:48;;;;;;;;;1.00;0.00;;;;;14.17;70.79;101119.03;5043634;28;9080;-65